sensor_id;sensor_type;location;lat;lon;timestamp;P1;durP1;ratioP1;P2;durP2;ratioP2
80322;SDS011;69636;52.372;13.610;2023-08-06T00:00:38;8.90;;;7.95;;
80322;SDS011;69636;52.372;13.610;2023-08-06T00:03:05;10.40;;;8.43;;
80322;SDS011;69636;52.372;13.610;2023-08-06T00:05:33;10.57;;;9.05;;
80322;SDS011;69636;52.372;13.610;2023-08-06T00:08:00;9.73;;;8.63;;
80322;SDS011;69636;52.372;13.610;2023-08-06T00:10:29;22.83;;;16.10;;
80322;SDS011;69636;52.372;13.610;2023-08-06T00:12:56;30.67;;;20.38;;
80322;SDS011;69636;52.372;13.610;2023-08-06T00:15:24;20.13;;;15.88;;
80322;SDS011;69636;52.372;13.610;2023-08-06T00:17:51;15.98;;;11.95;;
80322;SDS011;69636;52.372;13.610;2023-08-06T00:20:19;12.30;;;9.48;;
80322;SDS011;69636;52.372;13.610;2023-08-06T00:22:46;10.65;;;9.50;;
80322;SDS011;69636;52.372;13.610;2023-08-06T00:25:13;11.18;;;8.23;;
80322;SDS011;69636;52.372;13.610;2023-08-06T00:27:43;8.40;;;7.03;;
80322;SDS011;69636;52.372;13.610;2023-08-06T00:30:10;8.35;;;7.55;;
80322;SDS011;69636;52.372;13.610;2023-08-06T00:32:38;7.85;;;7.05;;
80322;SDS011;69636;52.372;13.610;2023-08-06T00:35:05;8.27;;;6.65;;
80322;SDS011;69636;52.372;13.610;2023-08-06T00:37:33;7.65;;;6.65;;
80322;SDS011;69636;52.372;13.610;2023-08-06T00:40:00;8.85;;;7.50;;
80322;SDS011;69636;52.372;13.610;2023-08-06T00:42:28;7.68;;;6.70;;
80322;SDS011;69636;52.372;13.610;2023-08-06T00:44:56;9.50;;;7.65;;
80322;SDS011;69636;52.372;13.610;2023-08-06T00:47:24;8.65;;;7.65;;
80322;SDS011;69636;52.372;13.610;2023-08-06T00:52:19;9.32;;;7.07;;
80322;SDS011;69636;52.372;13.610;2023-08-06T00:54:47;7.75;;;6.90;;
80322;SDS011;69636;52.372;13.610;2023-08-06T00:57:14;9.52;;;7.78;;
80322;SDS011;69636;52.372;13.610;2023-08-06T00:59:42;9.32;;;8.43;;
80322;SDS011;69636;52.372;13.610;2023-08-06T01:02:11;8.43;;;6.25;;
80322;SDS011;69636;52.372;13.610;2023-08-06T01:04:38;10.20;;;7.45;;
80322;SDS011;69636;52.372;13.610;2023-08-06T01:07:08;8.88;;;6.53;;
80322;SDS011;69636;52.372;13.610;2023-08-06T01:09:45;9.02;;;7.78;;
80322;SDS011;69636;52.372;13.610;2023-08-06T01:12:18;8.35;;;6.95;;
80322;SDS011;69636;52.372;13.610;2023-08-06T01:14:53;10.18;;;7.43;;
80322;SDS011;69636;52.372;13.610;2023-08-06T01:17:34;8.73;;;7.03;;
80322;SDS011;69636;52.372;13.610;2023-08-06T01:20:03;8.18;;;6.90;;
80322;SDS011;69636;52.372;13.610;2023-08-06T01:22:33;8.45;;;6.72;;
80322;SDS011;69636;52.372;13.610;2023-08-06T01:25:00;9.50;;;6.88;;
80322;SDS011;69636;52.372;13.610;2023-08-06T01:27:28;9.20;;;6.90;;
80322;SDS011;69636;52.372;13.610;2023-08-06T01:30:02;7.90;;;6.00;;
80322;SDS011;69636;52.372;13.610;2023-08-06T01:32:31;10.02;;;7.53;;
80322;SDS011;69636;52.372;13.610;2023-08-06T01:35:02;8.10;;;6.68;;
80322;SDS011;69636;52.372;13.610;2023-08-06T01:37:32;8.55;;;7.63;;
80322;SDS011;69636;52.372;13.610;2023-08-06T01:40:00;12.13;;;8.90;;
80322;SDS011;69636;52.372;13.610;2023-08-06T01:42:27;10.57;;;8.57;;
80322;SDS011;69636;52.372;13.610;2023-08-06T01:44:54;9.38;;;7.82;;
80322;SDS011;69636;52.372;13.610;2023-08-06T01:47:22;10.13;;;8.40;;
80322;SDS011;69636;52.372;13.610;2023-08-06T01:49:49;10.88;;;8.18;;
80322;SDS011;69636;52.372;13.610;2023-08-06T01:52:16;8.00;;;6.82;;
80322;SDS011;69636;52.372;13.610;2023-08-06T01:54:45;12.07;;;7.60;;
80322;SDS011;69636;52.372;13.610;2023-08-06T01:57:12;8.57;;;7.68;;
80322;SDS011;69636;52.372;13.610;2023-08-06T01:59:40;11.95;;;10.85;;
80322;SDS011;69636;52.372;13.610;2023-08-06T02:02:07;10.27;;;8.30;;
80322;SDS011;69636;52.372;13.610;2023-08-06T02:04:34;9.82;;;8.02;;
80322;SDS011;69636;52.372;13.610;2023-08-06T02:07:02;10.68;;;8.73;;
80322;SDS011;69636;52.372;13.610;2023-08-06T02:09:30;9.93;;;8.68;;
80322;SDS011;69636;52.372;13.610;2023-08-06T02:12:00;9.02;;;6.30;;
80322;SDS011;69636;52.372;13.610;2023-08-06T02:14:27;9.18;;;6.70;;
80322;SDS011;69636;52.372;13.610;2023-08-06T02:16:55;9.63;;;6.72;;
80322;SDS011;69636;52.372;13.610;2023-08-06T02:19:22;7.78;;;6.70;;
80322;SDS011;69636;52.372;13.610;2023-08-06T02:21:49;7.53;;;6.25;;
80322;SDS011;69636;52.372;13.610;2023-08-06T02:24:17;8.93;;;8.02;;
80322;SDS011;69636;52.372;13.610;2023-08-06T02:26:45;6.95;;;5.75;;
80322;SDS011;69636;52.372;13.610;2023-08-06T02:29:13;8.40;;;7.10;;
80322;SDS011;69636;52.372;13.610;2023-08-06T02:31:40;7.75;;;6.72;;
80322;SDS011;69636;52.372;13.610;2023-08-06T02:34:08;8.18;;;6.40;;
80322;SDS011;69636;52.372;13.610;2023-08-06T02:36:35;6.97;;;5.53;;
80322;SDS011;69636;52.372;13.610;2023-08-06T02:39:03;7.40;;;6.05;;
80322;SDS011;69636;52.372;13.610;2023-08-06T02:41:30;6.63;;;5.93;;
80322;SDS011;69636;52.372;13.610;2023-08-06T02:43:57;6.15;;;5.10;;
80322;SDS011;69636;52.372;13.610;2023-08-06T02:46:26;7.15;;;5.53;;
80322;SDS011;69636;52.372;13.610;2023-08-06T02:48:53;7.13;;;5.70;;
80322;SDS011;69636;52.372;13.610;2023-08-06T02:51:20;8.32;;;5.63;;
80322;SDS011;69636;52.372;13.610;2023-08-06T02:53:48;6.72;;;5.43;;
80322;SDS011;69636;52.372;13.610;2023-08-06T02:56:15;8.48;;;6.03;;
80322;SDS011;69636;52.372;13.610;2023-08-06T02:58:42;9.05;;;6.25;;
80322;SDS011;69636;52.372;13.610;2023-08-06T03:01:10;7.57;;;5.93;;
80322;SDS011;69636;52.372;13.610;2023-08-06T03:03:38;6.60;;;5.65;;
80322;SDS011;69636;52.372;13.610;2023-08-06T03:06:06;6.97;;;6.28;;
80322;SDS011;69636;52.372;13.610;2023-08-06T03:08:33;6.78;;;5.28;;
80322;SDS011;69636;52.372;13.610;2023-08-06T03:11:01;8.02;;;5.93;;
80322;SDS011;69636;52.372;13.610;2023-08-06T03:13:28;5.85;;;4.35;;
80322;SDS011;69636;52.372;13.610;2023-08-06T03:15:56;6.47;;;5.45;;
80322;SDS011;69636;52.372;13.610;2023-08-06T03:18:26;7.22;;;4.95;;
80322;SDS011;69636;52.372;13.610;2023-08-06T03:20:54;6.38;;;5.63;;
80322;SDS011;69636;52.372;13.610;2023-08-06T03:23:23;6.20;;;5.40;;
80322;SDS011;69636;52.372;13.610;2023-08-06T03:25:50;6.15;;;4.68;;
80322;SDS011;69636;52.372;13.610;2023-08-06T03:28:19;6.50;;;4.90;;
80322;SDS011;69636;52.372;13.610;2023-08-06T03:30:46;6.38;;;5.25;;
80322;SDS011;69636;52.372;13.610;2023-08-06T03:33:15;5.97;;;4.88;;
80322;SDS011;69636;52.372;13.610;2023-08-06T03:35:42;6.88;;;6.07;;
80322;SDS011;69636;52.372;13.610;2023-08-06T03:38:11;6.05;;;4.93;;
80322;SDS011;69636;52.372;13.610;2023-08-06T03:40:38;7.43;;;5.10;;
80322;SDS011;69636;52.372;13.610;2023-08-06T03:43:05;5.90;;;4.47;;
80322;SDS011;69636;52.372;13.610;2023-08-06T03:45:32;6.38;;;5.72;;
80322;SDS011;69636;52.372;13.610;2023-08-06T03:48:00;6.45;;;5.25;;
80322;SDS011;69636;52.372;13.610;2023-08-06T03:50:27;7.88;;;5.82;;
80322;SDS011;69636;52.372;13.610;2023-08-06T03:52:55;6.97;;;5.53;;
80322;SDS011;69636;52.372;13.610;2023-08-06T03:55:24;6.38;;;5.30;;
80322;SDS011;69636;52.372;13.610;2023-08-06T03:57:51;7.00;;;4.95;;
80322;SDS011;69636;52.372;13.610;2023-08-06T04:00:18;6.35;;;4.78;;
80322;SDS011;69636;52.372;13.610;2023-08-06T04:02:46;7.70;;;6.18;;
80322;SDS011;69636;52.372;13.610;2023-08-06T04:05:13;7.43;;;6.72;;
80322;SDS011;69636;52.372;13.610;2023-08-06T04:07:41;6.75;;;5.88;;
80322;SDS011;69636;52.372;13.610;2023-08-06T04:10:08;7.07;;;5.90;;
80322;SDS011;69636;52.372;13.610;2023-08-06T04:12:37;8.50;;;6.10;;
80322;SDS011;69636;52.372;13.610;2023-08-06T04:15:05;6.53;;;5.82;;
80322;SDS011;69636;52.372;13.610;2023-08-06T04:17:33;7.25;;;5.78;;
80322;SDS011;69636;52.372;13.610;2023-08-06T04:20:01;6.15;;;5.40;;
80322;SDS011;69636;52.372;13.610;2023-08-06T04:22:29;6.60;;;5.28;;
80322;SDS011;69636;52.372;13.610;2023-08-06T04:24:56;7.03;;;5.75;;
80322;SDS011;69636;52.372;13.610;2023-08-06T04:27:23;6.47;;;4.35;;
80322;SDS011;69636;52.372;13.610;2023-08-06T04:29:53;7.18;;;5.93;;
80322;SDS011;69636;52.372;13.610;2023-08-06T04:32:24;7.05;;;5.53;;
80322;SDS011;69636;52.372;13.610;2023-08-06T04:34:52;8.02;;;6.60;;
80322;SDS011;69636;52.372;13.610;2023-08-06T04:37:19;6.05;;;5.28;;
80322;SDS011;69636;52.372;13.610;2023-08-06T04:39:46;6.60;;;5.28;;
80322;SDS011;69636;52.372;13.610;2023-08-06T04:42:14;7.10;;;6.03;;
80322;SDS011;69636;52.372;13.610;2023-08-06T04:44:41;7.78;;;5.72;;
80322;SDS011;69636;52.372;13.610;2023-08-06T04:47:09;6.80;;;5.43;;
80322;SDS011;69636;52.372;13.610;2023-08-06T04:49:37;7.38;;;6.68;;
80322;SDS011;69636;52.372;13.610;2023-08-06T04:52:05;8.38;;;5.72;;
80322;SDS011;69636;52.372;13.610;2023-08-06T04:54:32;6.53;;;5.70;;
80322;SDS011;69636;52.372;13.610;2023-08-06T04:57:00;7.68;;;6.57;;
80322;SDS011;69636;52.372;13.610;2023-08-06T04:59:28;8.10;;;6.63;;
80322;SDS011;69636;52.372;13.610;2023-08-06T05:01:55;7.13;;;5.70;;
80322;SDS011;69636;52.372;13.610;2023-08-06T05:04:26;7.07;;;5.82;;
80322;SDS011;69636;52.372;13.610;2023-08-06T05:06:54;8.45;;;6.47;;
80322;SDS011;69636;52.372;13.610;2023-08-06T05:09:21;7.50;;;6.07;;
80322;SDS011;69636;52.372;13.610;2023-08-06T05:11:48;8.52;;;7.68;;
80322;SDS011;69636;52.372;13.610;2023-08-06T05:14:16;8.18;;;6.47;;
80322;SDS011;69636;52.372;13.610;2023-08-06T05:16:43;8.25;;;6.78;;
80322;SDS011;69636;52.372;13.610;2023-08-06T05:19:10;8.90;;;7.60;;
80322;SDS011;69636;52.372;13.610;2023-08-06T05:21:39;7.45;;;6.65;;
80322;SDS011;69636;52.372;13.610;2023-08-06T05:24:06;7.13;;;5.55;;
80322;SDS011;69636;52.372;13.610;2023-08-06T05:26:35;7.63;;;5.80;;
80322;SDS011;69636;52.372;13.610;2023-08-06T05:29:03;8.75;;;6.35;;
80322;SDS011;69636;52.372;13.610;2023-08-06T05:31:30;8.00;;;6.05;;
80322;SDS011;69636;52.372;13.610;2023-08-06T05:33:57;7.82;;;5.95;;
80322;SDS011;69636;52.372;13.610;2023-08-06T05:36:27;7.85;;;6.47;;
80322;SDS011;69636;52.372;13.610;2023-08-06T05:38:57;8.65;;;6.35;;
80322;SDS011;69636;52.372;13.610;2023-08-06T05:41:24;7.47;;;6.35;;
80322;SDS011;69636;52.372;13.610;2023-08-06T05:43:52;11.00;;;6.80;;
80322;SDS011;69636;52.372;13.610;2023-08-06T05:46:20;7.38;;;5.70;;
80322;SDS011;69636;52.372;13.610;2023-08-06T05:48:47;8.57;;;6.72;;
80322;SDS011;69636;52.372;13.610;2023-08-06T05:51:16;7.30;;;5.28;;
80322;SDS011;69636;52.372;13.610;2023-08-06T05:53:43;8.55;;;7.03;;
80322;SDS011;69636;52.372;13.610;2023-08-06T05:56:12;8.10;;;6.32;;
80322;SDS011;69636;52.372;13.610;2023-08-06T05:58:39;7.13;;;6.07;;
80322;SDS011;69636;52.372;13.610;2023-08-06T06:01:07;8.68;;;6.28;;
80322;SDS011;69636;52.372;13.610;2023-08-06T06:03:34;7.75;;;6.53;;
80322;SDS011;69636;52.372;13.610;2023-08-06T06:06:01;9.18;;;6.63;;
80322;SDS011;69636;52.372;13.610;2023-08-06T06:08:28;7.57;;;6.78;;
80322;SDS011;69636;52.372;13.610;2023-08-06T06:10:56;9.63;;;6.15;;
80322;SDS011;69636;52.372;13.610;2023-08-06T06:13:25;7.78;;;6.97;;
80322;SDS011;69636;52.372;13.610;2023-08-06T06:15:53;8.90;;;7.47;;
80322;SDS011;69636;52.372;13.610;2023-08-06T06:18:21;11.43;;;7.97;;
80322;SDS011;69636;52.372;13.610;2023-08-06T06:20:49;9.00;;;7.40;;
80322;SDS011;69636;52.372;13.610;2023-08-06T06:23:16;10.50;;;8.10;;
80322;SDS011;69636;52.372;13.610;2023-08-06T06:25:43;11.73;;;7.97;;
80322;SDS011;69636;52.372;13.610;2023-08-06T06:28:14;10.40;;;7.90;;
80322;SDS011;69636;52.372;13.610;2023-08-06T06:30:43;9.88;;;8.07;;
80322;SDS011;69636;52.372;13.610;2023-08-06T06:33:10;9.85;;;8.20;;
80322;SDS011;69636;52.372;13.610;2023-08-06T06:35:37;11.45;;;8.18;;
80322;SDS011;69636;52.372;13.610;2023-08-06T06:38:05;10.88;;;8.45;;
80322;SDS011;69636;52.372;13.610;2023-08-06T06:40:32;10.80;;;7.68;;
80322;SDS011;69636;52.372;13.610;2023-08-06T06:43:00;10.77;;;8.23;;
80322;SDS011;69636;52.372;13.610;2023-08-06T06:45:27;11.45;;;9.05;;
80322;SDS011;69636;52.372;13.610;2023-08-06T06:47:56;13.15;;;9.60;;
80322;SDS011;69636;52.372;13.610;2023-08-06T06:50:23;10.70;;;7.63;;
80322;SDS011;69636;52.372;13.610;2023-08-06T06:52:50;8.82;;;7.15;;
80322;SDS011;69636;52.372;13.610;2023-08-06T06:55:18;10.25;;;8.07;;
80322;SDS011;69636;52.372;13.610;2023-08-06T06:57:45;10.75;;;7.70;;
80322;SDS011;69636;52.372;13.610;2023-08-06T07:00:13;11.65;;;9.85;;
80322;SDS011;69636;52.372;13.610;2023-08-06T07:02:41;11.00;;;8.68;;
80322;SDS011;69636;52.372;13.610;2023-08-06T07:05:10;10.65;;;7.28;;
80322;SDS011;69636;52.372;13.610;2023-08-06T07:07:37;12.23;;;8.85;;
80322;SDS011;69636;52.372;13.610;2023-08-06T07:10:05;11.57;;;8.88;;
80322;SDS011;69636;52.372;13.610;2023-08-06T07:12:33;10.10;;;8.77;;
80322;SDS011;69636;52.372;13.610;2023-08-06T07:15:00;11.05;;;9.27;;
80322;SDS011;69636;52.372;13.610;2023-08-06T07:17:27;10.98;;;8.57;;
80322;SDS011;69636;52.372;13.610;2023-08-06T07:19:56;11.00;;;9.10;;
80322;SDS011;69636;52.372;13.610;2023-08-06T07:22:24;11.07;;;9.13;;
80322;SDS011;69636;52.372;13.610;2023-08-06T07:24:52;9.82;;;7.22;;
80322;SDS011;69636;52.372;13.610;2023-08-06T07:27:19;11.18;;;9.15;;
80322;SDS011;69636;52.372;13.610;2023-08-06T07:29:47;10.80;;;8.18;;
80322;SDS011;69636;52.372;13.610;2023-08-06T07:32:14;11.45;;;9.57;;
80322;SDS011;69636;52.372;13.610;2023-08-06T07:34:41;9.77;;;8.73;;
80322;SDS011;69636;52.372;13.610;2023-08-06T07:37:08;10.50;;;9.05;;
80322;SDS011;69636;52.372;13.610;2023-08-06T07:39:37;10.55;;;8.45;;
80322;SDS011;69636;52.372;13.610;2023-08-06T07:42:05;10.18;;;8.10;;
80322;SDS011;69636;52.372;13.610;2023-08-06T07:44:32;9.68;;;7.45;;
80322;SDS011;69636;52.372;13.610;2023-08-06T07:47:00;9.88;;;8.63;;
80322;SDS011;69636;52.372;13.610;2023-08-06T07:49:27;11.50;;;8.02;;
80322;SDS011;69636;52.372;13.610;2023-08-06T07:51:54;11.27;;;10.13;;
80322;SDS011;69636;52.372;13.610;2023-08-06T07:54:22;11.27;;;8.65;;
80322;SDS011;69636;52.372;13.610;2023-08-06T07:56:51;11.45;;;8.75;;
80322;SDS011;69636;52.372;13.610;2023-08-06T07:59:18;10.30;;;8.77;;
80322;SDS011;69636;52.372;13.610;2023-08-06T08:01:46;12.63;;;10.23;;
80322;SDS011;69636;52.372;13.610;2023-08-06T08:04:13;11.02;;;9.82;;
80322;SDS011;69636;52.372;13.610;2023-08-06T08:06:41;11.00;;;9.45;;
80322;SDS011;69636;52.372;13.610;2023-08-06T08:09:08;11.63;;;9.45;;
80322;SDS011;69636;52.372;13.610;2023-08-06T08:11:36;10.88;;;9.23;;
80322;SDS011;69636;52.372;13.610;2023-08-06T08:14:04;12.30;;;9.63;;
80322;SDS011;69636;52.372;13.610;2023-08-06T08:16:33;12.00;;;9.60;;
80322;SDS011;69636;52.372;13.610;2023-08-06T08:19:00;11.07;;;9.73;;
80322;SDS011;69636;52.372;13.610;2023-08-06T08:21:28;11.13;;;8.75;;
80322;SDS011;69636;52.372;13.610;2023-08-06T08:26:23;11.95;;;8.98;;
80322;SDS011;69636;52.372;13.610;2023-08-06T08:28:51;10.60;;;8.10;;
80322;SDS011;69636;52.372;13.610;2023-08-06T08:31:20;11.30;;;8.85;;
80322;SDS011;69636;52.372;13.610;2023-08-06T08:33:47;11.70;;;8.45;;
80322;SDS011;69636;52.372;13.610;2023-08-06T08:36:15;10.70;;;9.20;;
80322;SDS011;69636;52.372;13.610;2023-08-06T08:38:42;12.75;;;10.13;;
80322;SDS011;69636;52.372;13.610;2023-08-06T08:41:10;12.68;;;11.13;;
80322;SDS011;69636;52.372;13.610;2023-08-06T08:43:37;11.23;;;8.50;;
80322;SDS011;69636;52.372;13.610;2023-08-06T08:46:07;12.00;;;9.13;;
80322;SDS011;69636;52.372;13.610;2023-08-06T08:48:39;12.00;;;9.27;;
80322;SDS011;69636;52.372;13.610;2023-08-06T08:51:07;12.43;;;9.35;;
80322;SDS011;69636;52.372;13.610;2023-08-06T08:53:35;10.50;;;9.00;;
80322;SDS011;69636;52.372;13.610;2023-08-06T08:56:03;10.82;;;8.32;;
80322;SDS011;69636;52.372;13.610;2023-08-06T08:58:34;11.45;;;9.05;;
80322;SDS011;69636;52.372;13.610;2023-08-06T09:01:01;11.35;;;9.52;;
80322;SDS011;69636;52.372;13.610;2023-08-06T09:03:30;12.23;;;9.95;;
80322;SDS011;69636;52.372;13.610;2023-08-06T09:06:02;11.90;;;9.00;;
80322;SDS011;69636;52.372;13.610;2023-08-06T09:08:34;10.27;;;8.50;;
80322;SDS011;69636;52.372;13.610;2023-08-06T09:11:06;10.68;;;9.25;;
80322;SDS011;69636;52.372;13.610;2023-08-06T09:13:36;10.48;;;8.95;;
80322;SDS011;69636;52.372;13.610;2023-08-06T09:16:04;10.63;;;9.52;;
80322;SDS011;69636;52.372;13.610;2023-08-06T09:21:00;13.00;;;10.68;;
80322;SDS011;69636;52.372;13.610;2023-08-06T09:23:28;12.73;;;10.10;;
80322;SDS011;69636;52.372;13.610;2023-08-06T09:25:56;12.88;;;10.15;;
80322;SDS011;69636;52.372;13.610;2023-08-06T09:28:24;11.98;;;10.07;;
80322;SDS011;69636;52.372;13.610;2023-08-06T09:30:52;13.00;;;9.07;;
80322;SDS011;69636;52.372;13.610;2023-08-06T09:33:21;12.68;;;9.70;;
80322;SDS011;69636;52.372;13.610;2023-08-06T09:35:49;11.77;;;9.57;;
80322;SDS011;69636;52.372;13.610;2023-08-06T09:38:18;13.55;;;9.65;;
80322;SDS011;69636;52.372;13.610;2023-08-06T09:40:46;11.65;;;9.43;;
80322;SDS011;69636;52.372;13.610;2023-08-06T09:43:14;14.30;;;10.90;;
80322;SDS011;69636;52.372;13.610;2023-08-06T09:45:41;12.07;;;10.77;;
80322;SDS011;69636;52.372;13.610;2023-08-06T09:48:09;11.35;;;10.10;;
80322;SDS011;69636;52.372;13.610;2023-08-06T09:50:37;11.88;;;10.25;;
80322;SDS011;69636;52.372;13.610;2023-08-06T09:53:06;12.48;;;9.82;;
80322;SDS011;69636;52.372;13.610;2023-08-06T09:55:36;12.25;;;9.98;;
80322;SDS011;69636;52.372;13.610;2023-08-06T09:58:04;13.25;;;9.82;;
80322;SDS011;69636;52.372;13.610;2023-08-06T10:00:31;13.23;;;10.27;;
80322;SDS011;69636;52.372;13.610;2023-08-06T10:03:05;14.00;;;10.57;;
80322;SDS011;69636;52.372;13.610;2023-08-06T10:05:35;12.98;;;10.52;;
80322;SDS011;69636;52.372;13.610;2023-08-06T10:08:03;13.13;;;10.98;;
80322;SDS011;69636;52.372;13.610;2023-08-06T10:10:33;13.15;;;10.02;;
80322;SDS011;69636;52.372;13.610;2023-08-06T10:13:03;13.07;;;10.07;;
80322;SDS011;69636;52.372;13.610;2023-08-06T10:15:33;12.80;;;10.32;;
80322;SDS011;69636;52.372;13.610;2023-08-06T10:18:01;13.20;;;11.18;;
80322;SDS011;69636;52.372;13.610;2023-08-06T10:20:32;13.43;;;11.13;;
80322;SDS011;69636;52.372;13.610;2023-08-06T10:23:01;12.77;;;10.25;;
80322;SDS011;69636;52.372;13.610;2023-08-06T10:25:32;16.45;;;11.88;;
80322;SDS011;69636;52.372;13.610;2023-08-06T10:28:02;12.95;;;10.48;;
80322;SDS011;69636;52.372;13.610;2023-08-06T10:30:35;13.32;;;10.73;;
80322;SDS011;69636;52.372;13.610;2023-08-06T10:33:08;11.82;;;10.00;;
80322;SDS011;69636;52.372;13.610;2023-08-06T10:35:36;13.85;;;11.13;;
80322;SDS011;69636;52.372;13.610;2023-08-06T10:38:04;12.98;;;10.73;;
80322;SDS011;69636;52.372;13.610;2023-08-06T10:40:34;9.82;;;8.82;;
80322;SDS011;69636;52.372;13.610;2023-08-06T10:43:03;7.90;;;5.43;;
80322;SDS011;69636;52.372;13.610;2023-08-06T10:45:34;8.55;;;7.35;;
80322;SDS011;69636;52.372;13.610;2023-08-06T10:48:01;9.07;;;7.90;;
80322;SDS011;69636;52.372;13.610;2023-08-06T10:50:29;6.93;;;5.70;;
80322;SDS011;69636;52.372;13.610;2023-08-06T10:52:57;8.00;;;6.70;;
80322;SDS011;69636;52.372;13.610;2023-08-06T10:55:25;8.00;;;7.00;;
80322;SDS011;69636;52.372;13.610;2023-08-06T10:57:54;7.55;;;6.15;;
80322;SDS011;69636;52.372;13.610;2023-08-06T11:00:23;7.63;;;6.75;;
80322;SDS011;69636;52.372;13.610;2023-08-06T11:02:51;10.45;;;9.50;;
80322;SDS011;69636;52.372;13.610;2023-08-06T11:05:19;7.80;;;5.63;;
80322;SDS011;69636;52.372;13.610;2023-08-06T11:07:47;7.63;;;6.20;;
80322;SDS011;69636;52.372;13.610;2023-08-06T11:10:15;6.75;;;6.05;;
80322;SDS011;69636;52.372;13.610;2023-08-06T11:12:42;7.80;;;6.78;;
80322;SDS011;69636;52.372;13.610;2023-08-06T11:15:10;7.75;;;6.20;;
80322;SDS011;69636;52.372;13.610;2023-08-06T11:20:07;37.08;;;27.20;;
80322;SDS011;69636;52.372;13.610;2023-08-06T11:22:35;9.80;;;7.95;;
80322;SDS011;69636;52.372;13.610;2023-08-06T11:25:05;6.60;;;5.70;;
80322;SDS011;69636;52.372;13.610;2023-08-06T11:27:33;6.85;;;5.80;;
80322;SDS011;69636;52.372;13.610;2023-08-06T11:30:01;7.93;;;5.60;;
80322;SDS011;69636;52.372;13.610;2023-08-06T11:32:28;7.25;;;5.28;;
80322;SDS011;69636;52.372;13.610;2023-08-06T11:34:57;8.07;;;6.18;;
80322;SDS011;69636;52.372;13.610;2023-08-06T11:37:24;7.57;;;5.50;;
80322;SDS011;69636;52.372;13.610;2023-08-06T11:39:52;7.57;;;6.45;;
80322;SDS011;69636;52.372;13.610;2023-08-06T11:42:19;7.72;;;6.70;;
80322;SDS011;69636;52.372;13.610;2023-08-06T11:44:46;6.80;;;5.93;;
80322;SDS011;69636;52.372;13.610;2023-08-06T11:47:14;7.35;;;5.97;;
80322;SDS011;69636;52.372;13.610;2023-08-06T11:49:44;7.63;;;5.15;;
80322;SDS011;69636;52.372;13.610;2023-08-06T11:52:17;8.48;;;7.57;;
80322;SDS011;69636;52.372;13.610;2023-08-06T11:54:46;7.28;;;6.38;;
80322;SDS011;69636;52.372;13.610;2023-08-06T11:57:15;7.43;;;5.40;;
80322;SDS011;69636;52.372;13.610;2023-08-06T11:59:44;7.38;;;5.22;;
80322;SDS011;69636;52.372;13.610;2023-08-06T12:04:58;8.93;;;5.60;;
80322;SDS011;69636;52.372;13.610;2023-08-06T12:07:31;7.80;;;5.57;;
80322;SDS011;69636;52.372;13.610;2023-08-06T12:09:59;7.15;;;5.93;;
80322;SDS011;69636;52.372;13.610;2023-08-06T12:12:27;8.63;;;6.22;;
80322;SDS011;69636;52.372;13.610;2023-08-06T12:14:54;7.22;;;6.35;;
80322;SDS011;69636;52.372;13.610;2023-08-06T12:17:22;8.32;;;6.85;;
80322;SDS011;69636;52.372;13.610;2023-08-06T12:19:49;7.72;;;5.75;;
80322;SDS011;69636;52.372;13.610;2023-08-06T12:22:16;8.80;;;6.32;;
80322;SDS011;69636;52.372;13.610;2023-08-06T12:24:46;7.60;;;6.63;;
80322;SDS011;69636;52.372;13.610;2023-08-06T12:27:14;7.30;;;5.90;;
80322;SDS011;69636;52.372;13.610;2023-08-06T12:29:42;7.25;;;6.22;;
80322;SDS011;69636;52.372;13.610;2023-08-06T12:32:10;6.20;;;5.10;;
80322;SDS011;69636;52.372;13.610;2023-08-06T12:37:18;7.28;;;5.55;;
80322;SDS011;69636;52.372;13.610;2023-08-06T12:39:47;6.85;;;5.55;;
80322;SDS011;69636;52.372;13.610;2023-08-06T12:42:15;8.93;;;6.95;;
80322;SDS011;69636;52.372;13.610;2023-08-06T12:44:42;9.10;;;6.13;;
80322;SDS011;69636;52.372;13.610;2023-08-06T12:47:10;9.98;;;7.57;;
80322;SDS011;69636;52.372;13.610;2023-08-06T12:49:37;8.80;;;7.82;;
80322;SDS011;69636;52.372;13.610;2023-08-06T12:52:05;9.23;;;7.18;;
80322;SDS011;69636;52.372;13.610;2023-08-06T12:54:32;11.73;;;8.98;;
80322;SDS011;69636;52.372;13.610;2023-08-06T12:57:01;11.45;;;9.23;;
80322;SDS011;69636;52.372;13.610;2023-08-06T12:59:29;10.50;;;9.20;;
80322;SDS011;69636;52.372;13.610;2023-08-06T13:01:56;11.85;;;8.13;;
80322;SDS011;69636;52.372;13.610;2023-08-06T13:04:24;12.05;;;9.55;;
80322;SDS011;69636;52.372;13.610;2023-08-06T13:06:53;12.90;;;11.43;;
80322;SDS011;69636;52.372;13.610;2023-08-06T13:09:21;13.50;;;9.68;;
80322;SDS011;69636;52.372;13.610;2023-08-06T13:11:49;11.50;;;9.15;;
80322;SDS011;69636;52.372;13.610;2023-08-06T13:14:18;12.40;;;9.82;;
80322;SDS011;69636;52.372;13.610;2023-08-06T13:16:46;10.60;;;9.15;;
80322;SDS011;69636;52.372;13.610;2023-08-06T13:19:13;9.95;;;6.68;;
80322;SDS011;69636;52.372;13.610;2023-08-06T13:22:00;10.55;;;9.50;;
80322;SDS011;69636;52.372;13.610;2023-08-06T13:24:29;10.70;;;7.22;;
80322;SDS011;69636;52.372;13.610;2023-08-06T13:26:56;7.65;;;5.63;;
80322;SDS011;69636;52.372;13.610;2023-08-06T13:29:25;7.70;;;6.60;;
80322;SDS011;69636;52.372;13.610;2023-08-06T13:31:53;7.30;;;6.45;;
80322;SDS011;69636;52.372;13.610;2023-08-06T13:34:21;9.15;;;7.28;;
80322;SDS011;69636;52.372;13.610;2023-08-06T13:36:48;7.30;;;5.90;;
80322;SDS011;69636;52.372;13.610;2023-08-06T13:39:15;7.88;;;6.20;;
80322;SDS011;69636;52.372;13.610;2023-08-06T13:41:44;7.47;;;6.00;;
80322;SDS011;69636;52.372;13.610;2023-08-06T13:44:11;9.23;;;7.20;;
80322;SDS011;69636;52.372;13.610;2023-08-06T13:49:07;8.20;;;6.70;;
80322;SDS011;69636;52.372;13.610;2023-08-06T13:51:35;8.13;;;5.97;;
80322;SDS011;69636;52.372;13.610;2023-08-06T13:54:02;11.10;;;7.00;;
80322;SDS011;69636;52.372;13.610;2023-08-06T13:56:30;9.20;;;6.43;;
80322;SDS011;69636;52.372;13.610;2023-08-06T13:58:59;9.15;;;7.05;;
80322;SDS011;69636;52.372;13.610;2023-08-06T14:01:26;13.38;;;7.63;;
80322;SDS011;69636;52.372;13.610;2023-08-06T14:04:14;7.93;;;6.03;;
80322;SDS011;69636;52.372;13.610;2023-08-06T14:06:42;8.02;;;6.32;;
80322;SDS011;69636;52.372;13.610;2023-08-06T14:09:09;11.05;;;6.55;;
80322;SDS011;69636;52.372;13.610;2023-08-06T14:11:36;9.55;;;7.13;;
80322;SDS011;69636;52.372;13.610;2023-08-06T14:16:31;8.00;;;6.28;;
80322;SDS011;69636;52.372;13.610;2023-08-06T14:18:59;7.90;;;6.10;;
80322;SDS011;69636;52.372;13.610;2023-08-06T14:21:27;9.65;;;6.72;;
80322;SDS011;69636;52.372;13.610;2023-08-06T14:23:55;8.10;;;5.93;;
80322;SDS011;69636;52.372;13.610;2023-08-06T14:26:22;8.95;;;6.50;;
80322;SDS011;69636;52.372;13.610;2023-08-06T14:28:49;8.35;;;6.38;;
80322;SDS011;69636;52.372;13.610;2023-08-06T14:33:44;8.30;;;5.82;;
80322;SDS011;69636;52.372;13.610;2023-08-06T14:36:11;8.20;;;5.28;;
80322;SDS011;69636;52.372;13.610;2023-08-06T14:38:40;7.20;;;5.82;;
80322;SDS011;69636;52.372;13.610;2023-08-06T14:41:24;8.48;;;6.13;;
80322;SDS011;69636;52.372;13.610;2023-08-06T14:43:51;12.13;;;6.60;;
80322;SDS011;69636;52.372;13.610;2023-08-06T14:46:18;9.13;;;7.07;;
80322;SDS011;69636;52.372;13.610;2023-08-06T14:48:46;8.57;;;7.30;;
80322;SDS011;69636;52.372;13.610;2023-08-06T14:51:13;9.43;;;6.57;;
80322;SDS011;69636;52.372;13.610;2023-08-06T14:53:42;9.82;;;7.57;;
80322;SDS011;69636;52.372;13.610;2023-08-06T14:56:09;10.13;;;7.60;;